This demonstration page uses our WeatherBlox Daily Observations layout. Learn more.

41.55636, -103.73856

Hourly Observations for March 2, 2019

Temp ( °F °C ) Dew Point ( °F °C ) Humidity (%) Winds ( mph kmh ) Pressure ( in mb ) Visibility ( mi km ) Precip ( " mm )
12:58 am 00:58 Clear 29 -1.8 6 -14.3 38 38 ESE 10 17 30.09 1019 10 16.0934 N/A
1:58 am 01:58 Mostly Clear 22 -5.5 9 -12.7 57 57 SE 10 17 30.19 1022 10 16.0934 N/A
2:58 am 02:58 Mostly Cloudy 25 -4.1 14 -10 64 64 SSE 14 22 30.2 1023 10 16.0934 N/A
3:58 am 03:58 Cloudy 24 -4.3 15 -9.5 67 67 SSE 15 24 30.18 1022 10 16.0934 N/A
4:58 am 04:58 Mostly Cloudy 23 -4.8 15 -9.4 71 71 S 17 28 30.16 1022 10 16.0934 N/A
5:58 am 05:58 Windy with Snow Likely 23 -4.9 16 -8.8 74 74 S 29 46 30.14 1021 9 14.48406 N/A
6:58 am 06:58 Windy with Snow Likely 22 -5.6 19 -7.3 88 88 S 20 31 30.14 1021 2.25 3.621015 N/A
7:58 am 07:58 Cloudy with Light Snow 21 -5.9 19 -7.3 90 90 S 17 28 30.1 1019 0.75 1.207005 N/A
8:58 am 08:58 Windy with Snow Likely 20 -6.4 18 -7.9 89 89 S 22 35 30.1 1019 2.75 4.425685 N/A
9:58 am 09:58 Cloudy with Snow 20 -6.5 18 -7.9 90 90 S 22 35 30.09 1019 0.5 0.80467 N/A
10:58 am 10:58 Cloudy with Light Snow 20 -6.8 17 -8.2 90 90 S 17 28 30.07 1018 1.25 2.011675 N/A
11:58 am 11:58 Cloudy with Light Snow 19 -7.1 17 -8.4 91 91 SSE 12 19 30.09 1019 1 1.60934 N/A
12:58 pm 12:58 Cloudy with Light Snow 19 -7 17 -8.2 91 91 SE 6 9 30.15 1021 3 4.82802 N/A
1:58 pm 13:58 Cloudy with Light Snow 19 -7.3 17 -8.6 91 91 ESE 5 7 30.21 1023 1.25 2.011675 N/A
2:58 pm 14:58 Cloudy with Light Snow 17 -8.1 15 -9.7 88 88 ESE 7 11 30.27 1025 0.75 1.207005 N/A
3:58 pm 15:58 Mostly Cloudy with Scattered Snow Showers 17 -8.3 14 -10.1 87 87 SE 12 19 30.27 1025 4 6.43736 N/A
4:58 pm 16:58 Cloudy with Light Snow Showers 16 -8.8 10 -12 78 78 N 3 6 30.31 1026 1 1.60934 N/A
5:58 pm 17:58 Cloudy with Light Snow 14 -10.2 10 -12.2 85 85 NW 7 11 30.32 1027 1.25 2.011675 N/A
6:58 pm 18:58 Cloudy with Snow Showers 4 -15.3 0 -17.6 83 83 N 20 31 30.39 1029 0.5 0.80467 N/A
7:58 pm 19:58 Cloudy with Light Snow Showers 3 -16.2 -1 -18.5 83 83 N 14 22 30.38 1029 0.5 0.80467 N/A
8:58 pm 20:58 Cloudy with Light Snow Showers 2 -16.9 -4 -19.8 78 78 NE 10 17 30.4 1029 3 4.82802 N/A
9:58 pm 21:58 Mostly Cloudy with Light Snow Showers 1 -17.3 -4 -19.8 81 81 NNE 14 22 30.4 1029 2.5 4.02335 N/A
10:58 pm 22:58 Mostly Cloudy with Scattered Snow Showers 0 -17.8 -4 -20.2 82 82 NE 13 20 30.41 1030 1.5 2.41401 N/A
11:58 pm 23:58 Cloudy with Light Snow -1 -18.4 -5 -20.7 82 82 ENE 7 11 30.41 1030 1 1.60934 N/A

Powered by AerisWeather